sensor_id;sensor_type;location;lat;lon;timestamp;P1;durP1;ratioP1;P2;durP2;ratioP2
20000;SDS011;10161;41.188;-8.642;2023-05-07T00:00:19;9.50;;;4.40;;
20000;SDS011;10161;41.188;-8.642;2023-05-07T00:02:46;10.77;;;5.23;;
20000;SDS011;10161;41.188;-8.642;2023-05-07T00:05:15;12.23;;;4.30;;
20000;SDS011;10161;41.188;-8.642;2023-05-07T00:07:43;9.20;;;4.07;;
20000;SDS011;10161;41.188;-8.642;2023-05-07T00:10:11;16.17;;;5.53;;
20000;SDS011;10161;41.188;-8.642;2023-05-07T00:12:38;14.37;;;6.23;;
20000;SDS011;10161;41.188;-8.642;2023-05-07T00:15:07;12.43;;;5.23;;
20000;SDS011;10161;41.188;-8.642;2023-05-07T00:17:34;12.33;;;4.37;;
20000;SDS011;10161;41.188;-8.642;2023-05-07T00:20:02;13.10;;;4.67;;
20000;SDS011;10161;41.188;-8.642;2023-05-07T00:22:31;12.03;;;5.40;;
20000;SDS011;10161;41.188;-8.642;2023-05-07T00:24:59;14.73;;;5.80;;
20000;SDS011;10161;41.188;-8.642;2023-05-07T00:27:25;15.17;;;5.23;;
20000;SDS011;10161;41.188;-8.642;2023-05-07T00:29:52;14.57;;;5.23;;
20000;SDS011;10161;41.188;-8.642;2023-05-07T00:32:20;18.43;;;5.33;;
20000;SDS011;10161;41.188;-8.642;2023-05-07T00:34:47;17.50;;;5.00;;
20000;SDS011;10161;41.188;-8.642;2023-05-07T00:37:16;19.67;;;6.03;;
20000;SDS011;10161;41.188;-8.642;2023-05-07T00:39:46;14.33;;;5.43;;
20000;SDS011;10161;41.188;-8.642;2023-05-07T00:42:15;15.37;;;6.73;;
20000;SDS011;10161;41.188;-8.642;2023-05-07T00:44:42;17.60;;;6.33;;
20000;SDS011;10161;41.188;-8.642;2023-05-07T00:47:10;13.50;;;5.83;;
20000;SDS011;10161;41.188;-8.642;2023-05-07T00:49:38;15.57;;;5.63;;
20000;SDS011;10161;41.188;-8.642;2023-05-07T00:52:06;15.27;;;5.63;;
20000;SDS011;10161;41.188;-8.642;2023-05-07T00:54:33;13.47;;;4.80;;
20000;SDS011;10161;41.188;-8.642;2023-05-07T00:57:03;14.30;;;5.47;;
20000;SDS011;10161;41.188;-8.642;2023-05-07T00:59:30;12.53;;;5.07;;
20000;SDS011;10161;41.188;-8.642;2023-05-07T01:01:57;16.13;;;5.50;;
20000;SDS011;10161;41.188;-8.642;2023-05-07T01:04:26;14.43;;;6.37;;
20000;SDS011;10161;41.188;-8.642;2023-05-07T01:06:53;13.33;;;5.23;;
20000;SDS011;10161;41.188;-8.642;2023-05-07T01:09:22;14.77;;;5.03;;
20000;SDS011;10161;41.188;-8.642;2023-05-07T01:11:51;10.50;;;4.43;;
20000;SDS011;10161;41.188;-8.642;2023-05-07T01:14:20;10.37;;;4.53;;
20000;SDS011;10161;41.188;-8.642;2023-05-07T01:16:47;10.70;;;4.50;;
20000;SDS011;10161;41.188;-8.642;2023-05-07T01:19:16;16.70;;;5.37;;
20000;SDS011;10161;41.188;-8.642;2023-05-07T01:21:45;11.30;;;4.53;;
20000;SDS011;10161;41.188;-8.642;2023-05-07T01:24:15;10.70;;;4.53;;
20000;SDS011;10161;41.188;-8.642;2023-05-07T01:26:44;7.83;;;3.97;;
20000;SDS011;10161;41.188;-8.642;2023-05-07T01:29:12;12.33;;;4.87;;
20000;SDS011;10161;41.188;-8.642;2023-05-07T01:31:40;10.60;;;4.10;;
20000;SDS011;10161;41.188;-8.642;2023-05-07T01:34:08;12.37;;;4.10;;
20000;SDS011;10161;41.188;-8.642;2023-05-07T01:36:36;10.23;;;4.40;;
20000;SDS011;10161;41.188;-8.642;2023-05-07T01:39:06;10.93;;;4.60;;
20000;SDS011;10161;41.188;-8.642;2023-05-07T01:41:35;12.43;;;4.60;;
20000;SDS011;10161;41.188;-8.642;2023-05-07T01:44:02;12.87;;;5.13;;
20000;SDS011;10161;41.188;-8.642;2023-05-07T01:46:30;14.63;;;4.90;;
20000;SDS011;10161;41.188;-8.642;2023-05-07T01:48:58;13.50;;;5.13;;
20000;SDS011;10161;41.188;-8.642;2023-05-07T01:51:26;14.30;;;5.37;;
20000;SDS011;10161;41.188;-8.642;2023-05-07T01:53:53;11.37;;;4.50;;
20000;SDS011;10161;41.188;-8.642;2023-05-07T01:56:20;11.47;;;4.30;;
20000;SDS011;10161;41.188;-8.642;2023-05-07T01:58:51;15.70;;;5.37;;
20000;SDS011;10161;41.188;-8.642;2023-05-07T02:01:19;10.90;;;4.90;;
20000;SDS011;10161;41.188;-8.642;2023-05-07T02:03:46;13.37;;;5.40;;
20000;SDS011;10161;41.188;-8.642;2023-05-07T02:06:15;13.67;;;4.57;;
20000;SDS011;10161;41.188;-8.642;2023-05-07T02:08:42;21.53;;;6.27;;
20000;SDS011;10161;41.188;-8.642;2023-05-07T02:11:09;15.73;;;5.70;;
20000;SDS011;10161;41.188;-8.642;2023-05-07T02:13:36;17.43;;;5.80;;
20000;SDS011;10161;41.188;-8.642;2023-05-07T02:16:06;17.70;;;6.10;;
20000;SDS011;10161;41.188;-8.642;2023-05-07T02:18:33;15.27;;;5.23;;
20000;SDS011;10161;41.188;-8.642;2023-05-07T02:21:02;11.87;;;5.10;;
20000;SDS011;10161;41.188;-8.642;2023-05-07T02:23:29;13.83;;;5.70;;
20000;SDS011;10161;41.188;-8.642;2023-05-07T02:25:56;14.23;;;5.47;;
20000;SDS011;10161;41.188;-8.642;2023-05-07T02:28:23;18.30;;;5.67;;
20000;SDS011;10161;41.188;-8.642;2023-05-07T02:30:52;16.03;;;6.10;;
20000;SDS011;10161;41.188;-8.642;2023-05-07T02:33:20;18.63;;;5.70;;
20000;SDS011;10161;41.188;-8.642;2023-05-07T02:35:48;18.13;;;5.17;;
20000;SDS011;10161;41.188;-8.642;2023-05-07T02:38:17;14.67;;;5.30;;
20000;SDS011;10161;41.188;-8.642;2023-05-07T02:40:45;15.30;;;5.60;;
20000;SDS011;10161;41.188;-8.642;2023-05-07T02:43:13;14.77;;;5.40;;
20000;SDS011;10161;41.188;-8.642;2023-05-07T02:45:41;13.20;;;5.07;;
20000;SDS011;10161;41.188;-8.642;2023-05-07T02:48:09;8.57;;;4.17;;
20000;SDS011;10161;41.188;-8.642;2023-05-07T02:50:39;12.83;;;5.30;;
20000;SDS011;10161;41.188;-8.642;2023-05-07T02:53:06;11.33;;;5.50;;
20000;SDS011;10161;41.188;-8.642;2023-05-07T02:55:33;11.03;;;4.80;;
20000;SDS011;10161;41.188;-8.642;2023-05-07T02:58:00;11.97;;;4.53;;
20000;SDS011;10161;41.188;-8.642;2023-05-07T03:00:29;15.13;;;5.63;;
20000;SDS011;10161;41.188;-8.642;2023-05-07T03:02:56;11.83;;;4.93;;
20000;SDS011;10161;41.188;-8.642;2023-05-07T03:05:23;11.40;;;5.37;;
20000;SDS011;10161;41.188;-8.642;2023-05-07T03:07:52;10.43;;;5.40;;
20000;SDS011;10161;41.188;-8.642;2023-05-07T03:10:19;15.23;;;6.77;;
20000;SDS011;10161;41.188;-8.642;2023-05-07T03:12:47;16.87;;;6.10;;
20000;SDS011;10161;41.188;-8.642;2023-05-07T03:15:14;12.70;;;5.37;;
20000;SDS011;10161;41.188;-8.642;2023-05-07T03:17:43;12.30;;;5.30;;
20000;SDS011;10161;41.188;-8.642;2023-05-07T03:20:11;15.40;;;5.40;;
20000;SDS011;10161;41.188;-8.642;2023-05-07T03:22:38;13.07;;;5.47;;
20000;SDS011;10161;41.188;-8.642;2023-05-07T03:25:08;11.03;;;6.27;;
20000;SDS011;10161;41.188;-8.642;2023-05-07T03:27:35;10.93;;;5.30;;
20000;SDS011;10161;41.188;-8.642;2023-05-07T03:30:03;13.67;;;5.70;;
20000;SDS011;10161;41.188;-8.642;2023-05-07T03:32:31;12.50;;;5.30;;
20000;SDS011;10161;41.188;-8.642;2023-05-07T03:34:58;12.40;;;5.63;;
20000;SDS011;10161;41.188;-8.642;2023-05-07T03:37:26;11.57;;;5.73;;
20000;SDS011;10161;41.188;-8.642;2023-05-07T03:39:53;11.87;;;6.27;;
20000;SDS011;10161;41.188;-8.642;2023-05-07T03:42:22;10.17;;;5.50;;
20000;SDS011;10161;41.188;-8.642;2023-05-07T03:44:49;11.60;;;6.07;;
20000;SDS011;10161;41.188;-8.642;2023-05-07T03:47:16;16.60;;;6.70;;
20000;SDS011;10161;41.188;-8.642;2023-05-07T03:49:44;14.50;;;5.80;;
20000;SDS011;10161;41.188;-8.642;2023-05-07T03:52:11;10.90;;;5.90;;
20000;SDS011;10161;41.188;-8.642;2023-05-07T03:54:40;12.67;;;5.97;;
20000;SDS011;10161;41.188;-8.642;2023-05-07T03:57:07;13.30;;;6.17;;
20000;SDS011;10161;41.188;-8.642;2023-05-07T03:59:35;13.40;;;5.63;;
20000;SDS011;10161;41.188;-8.642;2023-05-07T04:02:03;17.83;;;6.63;;
20000;SDS011;10161;41.188;-8.642;2023-05-07T04:04:32;18.20;;;7.37;;
20000;SDS011;10161;41.188;-8.642;2023-05-07T04:06:59;15.00;;;5.97;;
20000;SDS011;10161;41.188;-8.642;2023-05-07T04:09:26;14.90;;;6.27;;
20000;SDS011;10161;41.188;-8.642;2023-05-07T04:11:53;17.70;;;6.30;;
20000;SDS011;10161;41.188;-8.642;2023-05-07T04:14:20;17.73;;;6.20;;
20000;SDS011;10161;41.188;-8.642;2023-05-07T04:16:49;15.90;;;5.90;;
20000;SDS011;10161;41.188;-8.642;2023-05-07T04:19:16;11.50;;;5.40;;
20000;SDS011;10161;41.188;-8.642;2023-05-07T04:21:43;12.87;;;5.40;;
20000;SDS011;10161;41.188;-8.642;2023-05-07T04:24:10;13.13;;;4.90;;
20000;SDS011;10161;41.188;-8.642;2023-05-07T04:26:39;15.47;;;5.50;;
20000;SDS011;10161;41.188;-8.642;2023-05-07T04:29:06;10.27;;;5.30;;
20000;SDS011;10161;41.188;-8.642;2023-05-07T04:31:33;12.53;;;4.67;;
20000;SDS011;10161;41.188;-8.642;2023-05-07T04:34:03;9.27;;;4.50;;
20000;SDS011;10161;41.188;-8.642;2023-05-07T04:36:30;12.17;;;4.80;;
20000;SDS011;10161;41.188;-8.642;2023-05-07T04:38:58;14.00;;;5.10;;
20000;SDS011;10161;41.188;-8.642;2023-05-07T04:41:25;9.30;;;4.23;;
20000;SDS011;10161;41.188;-8.642;2023-05-07T04:43:53;11.07;;;4.37;;
20000;SDS011;10161;41.188;-8.642;2023-05-07T04:46:20;8.20;;;3.57;;
20000;SDS011;10161;41.188;-8.642;2023-05-07T04:48:50;10.70;;;4.93;;
20000;SDS011;10161;41.188;-8.642;2023-05-07T04:51:19;11.10;;;5.00;;
20000;SDS011;10161;41.188;-8.642;2023-05-07T04:53:46;12.07;;;5.17;;
20000;SDS011;10161;41.188;-8.642;2023-05-07T04:56:14;13.93;;;5.17;;
20000;SDS011;10161;41.188;-8.642;2023-05-07T04:58:40;9.30;;;4.40;;
20000;SDS011;10161;41.188;-8.642;2023-05-07T05:01:07;13.10;;;5.77;;
20000;SDS011;10161;41.188;-8.642;2023-05-07T05:03:35;11.20;;;5.27;;
20000;SDS011;10161;41.188;-8.642;2023-05-07T05:06:02;9.67;;;4.90;;
20000;SDS011;10161;41.188;-8.642;2023-05-07T05:08:31;10.00;;;5.10;;
20000;SDS011;10161;41.188;-8.642;2023-05-07T05:10:58;8.73;;;4.77;;
20000;SDS011;10161;41.188;-8.642;2023-05-07T05:13:25;7.40;;;4.60;;
20000;SDS011;10161;41.188;-8.642;2023-05-07T05:15:54;10.90;;;5.30;;
20000;SDS011;10161;41.188;-8.642;2023-05-07T05:18:21;12.10;;;6.33;;
20000;SDS011;10161;41.188;-8.642;2023-05-07T05:20:48;9.40;;;5.83;;
20000;SDS011;10161;41.188;-8.642;2023-05-07T05:23:14;7.40;;;5.43;;
20000;SDS011;10161;41.188;-8.642;2023-05-07T05:25:43;7.80;;;6.03;;
20000;SDS011;10161;41.188;-8.642;2023-05-07T05:28:10;6.17;;;4.90;;
20000;SDS011;10161;41.188;-8.642;2023-05-07T05:30:37;6.47;;;5.37;;
20000;SDS011;10161;41.188;-8.642;2023-05-07T05:33:07;17.07;;;6.67;;
20000;SDS011;10161;41.188;-8.642;2023-05-07T05:35:34;8.50;;;6.40;;
20000;SDS011;10161;41.188;-8.642;2023-05-07T05:38:01;9.60;;;6.23;;
20000;SDS011;10161;41.188;-8.642;2023-05-07T05:40:30;8.90;;;5.60;;
20000;SDS011;10161;41.188;-8.642;2023-05-07T05:42:59;7.60;;;5.53;;
20000;SDS011;10161;41.188;-8.642;2023-05-07T05:45:25;9.83;;;5.47;;
20000;SDS011;10161;41.188;-8.642;2023-05-07T05:47:52;9.37;;;6.50;;
20000;SDS011;10161;41.188;-8.642;2023-05-07T05:50:19;7.80;;;6.93;;
20000;SDS011;10161;41.188;-8.642;2023-05-07T05:52:47;10.80;;;7.87;;
20000;SDS011;10161;41.188;-8.642;2023-05-07T05:55:14;12.03;;;8.10;;
20000;SDS011;10161;41.188;-8.642;2023-05-07T05:57:41;8.70;;;7.80;;
20000;SDS011;10161;41.188;-8.642;2023-05-07T06:00:10;22.27;;;11.17;;
20000;SDS011;10161;41.188;-8.642;2023-05-07T06:02:38;20.53;;;10.30;;
20000;SDS011;10161;41.188;-8.642;2023-05-07T06:05:05;16.03;;;10.40;;
20000;SDS011;10161;41.188;-8.642;2023-05-07T06:07:33;15.10;;;8.40;;
20000;SDS011;10161;41.188;-8.642;2023-05-07T06:10:01;8.90;;;7.10;;
20000;SDS011;10161;41.188;-8.642;2023-05-07T06:12:28;8.40;;;7.23;;
20000;SDS011;10161;41.188;-8.642;2023-05-07T06:14:55;9.57;;;7.50;;
20000;SDS011;10161;41.188;-8.642;2023-05-07T06:17:23;17.67;;;8.70;;
20000;SDS011;10161;41.188;-8.642;2023-05-07T06:19:50;11.00;;;9.90;;
20000;SDS011;10161;41.188;-8.642;2023-05-07T06:22:18;12.60;;;9.20;;
20000;SDS011;10161;41.188;-8.642;2023-05-07T06:24:46;19.93;;;10.70;;
20000;SDS011;10161;41.188;-8.642;2023-05-07T06:27:13;13.53;;;11.93;;
20000;SDS011;10161;41.188;-8.642;2023-05-07T06:29:40;15.60;;;12.37;;
20000;SDS011;10161;41.188;-8.642;2023-05-07T06:32:07;15.63;;;12.83;;
20000;SDS011;10161;41.188;-8.642;2023-05-07T06:34:35;20.00;;;15.33;;
20000;SDS011;10161;41.188;-8.642;2023-05-07T06:37:02;18.20;;;14.70;;
20000;SDS011;10161;41.188;-8.642;2023-05-07T06:39:29;20.20;;;16.03;;
20000;SDS011;10161;41.188;-8.642;2023-05-07T06:41:57;21.27;;;15.37;;
20000;SDS011;10161;41.188;-8.642;2023-05-07T06:44:26;20.93;;;15.37;;
20000;SDS011;10161;41.188;-8.642;2023-05-07T06:46:53;22.80;;;16.50;;
20000;SDS011;10161;41.188;-8.642;2023-05-07T06:49:20;23.30;;;17.20;;
20000;SDS011;10161;41.188;-8.642;2023-05-07T06:51:51;22.83;;;17.83;;
20000;SDS011;10161;41.188;-8.642;2023-05-07T06:54:19;24.83;;;16.90;;
20000;SDS011;10161;41.188;-8.642;2023-05-07T06:56:47;23.60;;;17.00;;
20000;SDS011;10161;41.188;-8.642;2023-05-07T06:59:14;21.77;;;16.80;;
20000;SDS011;10161;41.188;-8.642;2023-05-07T07:01:41;23.67;;;16.57;;
20000;SDS011;10161;41.188;-8.642;2023-05-07T07:04:11;25.87;;;18.50;;
20000;SDS011;10161;41.188;-8.642;2023-05-07T07:06:39;25.30;;;17.97;;
20000;SDS011;10161;41.188;-8.642;2023-05-07T07:09:08;23.50;;;16.60;;
20000;SDS011;10161;41.188;-8.642;2023-05-07T07:11:35;19.87;;;13.50;;
20000;SDS011;10161;41.188;-8.642;2023-05-07T07:14:02;18.03;;;13.03;;
20000;SDS011;10161;41.188;-8.642;2023-05-07T07:16:30;16.70;;;11.97;;
20000;SDS011;10161;41.188;-8.642;2023-05-07T07:18:57;18.33;;;12.60;;
20000;SDS011;10161;41.188;-8.642;2023-05-07T07:21:24;17.83;;;13.30;;
20000;SDS011;10161;41.188;-8.642;2023-05-07T07:23:52;15.40;;;11.60;;
20000;SDS011;10161;41.188;-8.642;2023-05-07T07:26:21;15.50;;;11.77;;
20000;SDS011;10161;41.188;-8.642;2023-05-07T07:28:50;13.37;;;10.47;;
20000;SDS011;10161;41.188;-8.642;2023-05-07T07:31:19;16.27;;;10.47;;
20000;SDS011;10161;41.188;-8.642;2023-05-07T07:33:46;15.13;;;10.23;;
20000;SDS011;10161;41.188;-8.642;2023-05-07T07:36:14;13.07;;;9.47;;
20000;SDS011;10161;41.188;-8.642;2023-05-07T07:38:42;11.83;;;8.83;;
20000;SDS011;10161;41.188;-8.642;2023-05-07T07:41:10;13.80;;;8.90;;
20000;SDS011;10161;41.188;-8.642;2023-05-07T07:43:39;14.30;;;8.30;;
20000;SDS011;10161;41.188;-8.642;2023-05-07T07:46:06;15.20;;;8.80;;
20000;SDS011;10161;41.188;-8.642;2023-05-07T07:48:33;13.80;;;8.50;;
20000;SDS011;10161;41.188;-8.642;2023-05-07T07:51:00;11.63;;;8.00;;
20000;SDS011;10161;41.188;-8.642;2023-05-07T07:53:27;12.20;;;7.30;;
20000;SDS011;10161;41.188;-8.642;2023-05-07T07:55:57;7.70;;;5.53;;
20000;SDS011;10161;41.188;-8.642;2023-05-07T07:58:26;10.00;;;6.60;;
20000;SDS011;10161;41.188;-8.642;2023-05-07T08:00:55;13.70;;;7.90;;
20000;SDS011;10161;41.188;-8.642;2023-05-07T08:03:22;14.83;;;8.30;;
20000;SDS011;10161;41.188;-8.642;2023-05-07T08:05:53;9.80;;;7.63;;
20000;SDS011;10161;41.188;-8.642;2023-05-07T08:08:20;13.23;;;9.83;;
20000;SDS011;10161;41.188;-8.642;2023-05-07T08:10:47;16.03;;;11.00;;
20000;SDS011;10161;41.188;-8.642;2023-05-07T08:13:15;12.87;;;11.30;;
20000;SDS011;10161;41.188;-8.642;2023-05-07T08:15:45;13.70;;;11.47;;
20000;SDS011;10161;41.188;-8.642;2023-05-07T08:18:14;12.80;;;11.50;;
20000;SDS011;10161;41.188;-8.642;2023-05-07T08:20:41;13.93;;;10.73;;
20000;SDS011;10161;41.188;-8.642;2023-05-07T08:23:09;13.80;;;10.17;;
20000;SDS011;10161;41.188;-8.642;2023-05-07T08:25:36;16.10;;;11.23;;
20000;SDS011;10161;41.188;-8.642;2023-05-07T08:28:04;15.87;;;11.13;;
20000;SDS011;10161;41.188;-8.642;2023-05-07T08:30:31;15.47;;;10.23;;
20000;SDS011;10161;41.188;-8.642;2023-05-07T08:32:58;17.53;;;10.93;;
20000;SDS011;10161;41.188;-8.642;2023-05-07T08:35:29;14.63;;;11.17;;
20000;SDS011;10161;41.188;-8.642;2023-05-07T08:37:56;14.97;;;10.57;;
20000;SDS011;10161;41.188;-8.642;2023-05-07T08:40:25;16.27;;;11.83;;
20000;SDS011;10161;41.188;-8.642;2023-05-07T08:42:53;13.00;;;10.10;;
20000;SDS011;10161;41.188;-8.642;2023-05-07T08:45:20;12.90;;;8.83;;
20000;SDS011;10161;41.188;-8.642;2023-05-07T08:47:49;14.57;;;9.67;;
20000;SDS011;10161;41.188;-8.642;2023-05-07T08:50:19;11.27;;;8.17;;
20000;SDS011;10161;41.188;-8.642;2023-05-07T08:52:50;13.77;;;9.00;;
20000;SDS011;10161;41.188;-8.642;2023-05-07T08:55:17;13.93;;;8.20;;
20000;SDS011;10161;41.188;-8.642;2023-05-07T08:57:44;11.13;;;7.77;;
20000;SDS011;10161;41.188;-8.642;2023-05-07T09:00:12;10.30;;;6.37;;
20000;SDS011;10161;41.188;-8.642;2023-05-07T09:02:40;14.80;;;7.43;;
20000;SDS011;10161;41.188;-8.642;2023-05-07T09:05:07;14.43;;;6.73;;
20000;SDS011;10161;41.188;-8.642;2023-05-07T09:07:35;16.00;;;7.80;;
20000;SDS011;10161;41.188;-8.642;2023-05-07T09:10:07;12.93;;;7.00;;
20000;SDS011;10161;41.188;-8.642;2023-05-07T09:12:35;15.30;;;6.70;;
20000;SDS011;10161;41.188;-8.642;2023-05-07T09:15:03;14.40;;;6.97;;
20000;SDS011;10161;41.188;-8.642;2023-05-07T09:17:31;16.60;;;7.10;;
20000;SDS011;10161;41.188;-8.642;2023-05-07T09:20:01;14.33;;;7.00;;
20000;SDS011;10161;41.188;-8.642;2023-05-07T09:22:31;18.93;;;7.70;;
20000;SDS011;10161;41.188;-8.642;2023-05-07T09:24:58;16.43;;;7.03;;
20000;SDS011;10161;41.188;-8.642;2023-05-07T09:27:27;20.57;;;8.27;;
20000;SDS011;10161;41.188;-8.642;2023-05-07T09:29:54;16.23;;;6.80;;
20000;SDS011;10161;41.188;-8.642;2023-05-07T09:32:21;12.60;;;5.90;;
20000;SDS011;10161;41.188;-8.642;2023-05-07T09:34:49;14.80;;;6.03;;
20000;SDS011;10161;41.188;-8.642;2023-05-07T09:37:16;15.70;;;8.03;;
20000;SDS011;10161;41.188;-8.642;2023-05-07T09:39:43;15.20;;;8.13;;
20000;SDS011;10161;41.188;-8.642;2023-05-07T09:42:11;15.27;;;7.03;;
20000;SDS011;10161;41.188;-8.642;2023-05-07T09:44:41;18.60;;;7.03;;
20000;SDS011;10161;41.188;-8.642;2023-05-07T09:47:11;20.53;;;7.43;;
20000;SDS011;10161;41.188;-8.642;2023-05-07T09:49:46;14.37;;;6.37;;
20000;SDS011;10161;41.188;-8.642;2023-05-07T09:52:14;12.90;;;6.10;;
20000;SDS011;10161;41.188;-8.642;2023-05-07T09:54:41;14.80;;;5.60;;
20000;SDS011;10161;41.188;-8.642;2023-05-07T09:57:10;11.93;;;5.20;;
20000;SDS011;10161;41.188;-8.642;2023-05-07T09:59:38;12.03;;;4.67;;
20000;SDS011;10161;41.188;-8.642;2023-05-07T10:02:08;12.73;;;5.50;;
20000;SDS011;10161;41.188;-8.642;2023-05-07T10:04:38;12.70;;;5.57;;
20000;SDS011;10161;41.188;-8.642;2023-05-07T10:07:05;16.87;;;6.27;;
20000;SDS011;10161;41.188;-8.642;2023-05-07T10:09:35;14.17;;;4.77;;
20000;SDS011;10161;41.188;-8.642;2023-05-07T10:12:04;14.57;;;5.53;;
20000;SDS011;10161;41.188;-8.642;2023-05-07T10:14:32;16.03;;;5.43;;
20000;SDS011;10161;41.188;-8.642;2023-05-07T10:17:03;10.10;;;4.50;;
20000;SDS011;10161;41.188;-8.642;2023-05-07T10:19:30;13.50;;;5.10;;
20000;SDS011;10161;41.188;-8.642;2023-05-07T10:21:59;11.90;;;4.40;;
20000;SDS011;10161;41.188;-8.642;2023-05-07T10:24:32;14.60;;;4.87;;
20000;SDS011;10161;41.188;-8.642;2023-05-07T10:27:00;11.53;;;4.30;;
20000;SDS011;10161;41.188;-8.642;2023-05-07T10:29:33;10.67;;;4.47;;
20000;SDS011;10161;41.188;-8.642;2023-05-07T10:32:12;15.90;;;4.47;;
20000;SDS011;10161;41.188;-8.642;2023-05-07T10:34:50;14.37;;;4.27;;
20000;SDS011;10161;41.188;-8.642;2023-05-07T10:37:20;9.80;;;3.90;;
20000;SDS011;10161;41.188;-8.642;2023-05-07T10:39:48;12.67;;;3.53;;
20000;SDS011;10161;41.188;-8.642;2023-05-07T10:42:15;7.90;;;3.30;;
20000;SDS011;10161;41.188;-8.642;2023-05-07T10:44:42;8.30;;;3.10;;
20000;SDS011;10161;41.188;-8.642;2023-05-07T10:47:11;12.80;;;2.83;;
20000;SDS011;10161;41.188;-8.642;2023-05-07T10:52:40;12.20;;;3.33;;
20000;SDS011;10161;41.188;-8.642;2023-05-07T10:55:19;11.67;;;3.30;;
20000;SDS011;10161;41.188;-8.642;2023-05-07T10:57:50;10.27;;;3.10;;
20000;SDS011;10161;41.188;-8.642;2023-05-07T11:03:11;11.13;;;3.20;;
20000;SDS011;10161;41.188;-8.642;2023-05-07T11:05:40;17.23;;;3.80;;
20000;SDS011;10161;41.188;-8.642;2023-05-07T11:08:09;7.37;;;3.00;;
20000;SDS011;10161;41.188;-8.642;2023-05-07T11:10:51;11.93;;;3.37;;
20000;SDS011;10161;41.188;-8.642;2023-05-07T11:13:40;10.27;;;3.20;;
20000;SDS011;10161;41.188;-8.642;2023-05-07T11:16:16;9.70;;;4.00;;
20000;SDS011;10161;41.188;-8.642;2023-05-07T11:18:49;8.43;;;3.50;;
20000;SDS011;10161;41.188;-8.642;2023-05-07T11:21:34;11.60;;;3.53;;
20000;SDS011;10161;41.188;-8.642;2023-05-07T11:24:02;6.87;;;2.90;;
20000;SDS011;10161;41.188;-8.642;2023-05-07T11:26:31;11.83;;;3.50;;
20000;SDS011;10161;41.188;-8.642;2023-05-07T11:29:13;7.47;;;3.20;;
20000;SDS011;10161;41.188;-8.642;2023-05-07T11:31:41;9.07;;;3.00;;
20000;SDS011;10161;41.188;-8.642;2023-05-07T11:34:13;11.33;;;3.80;;
20000;SDS011;10161;41.188;-8.642;2023-05-07T11:36:44;7.40;;;2.80;;
20000;SDS011;10161;41.188;-8.642;2023-05-07T11:39:24;9.50;;;3.03;;
20000;SDS011;10161;41.188;-8.642;2023-05-07T11:41:55;7.77;;;3.30;;
20000;SDS011;10161;41.188;-8.642;2023-05-07T11:44:23;8.00;;;2.90;;
20000;SDS011;10161;41.188;-8.642;2023-05-07T11:46:50;7.73;;;3.37;;
20000;SDS011;10161;41.188;-8.642;2023-05-07T11:49:19;10.87;;;3.60;;
20000;SDS011;10161;41.188;-8.642;2023-05-07T11:51:46;8.97;;;3.50;;
20000;SDS011;10161;41.188;-8.642;2023-05-07T11:54:15;9.30;;;3.10;;
20000;SDS011;10161;41.188;-8.642;2023-05-07T11:56:43;6.80;;;2.90;;
20000;SDS011;10161;41.188;-8.642;2023-05-07T11:59:11;12.43;;;3.10;;
20000;SDS011;10161;41.188;-8.642;2023-05-07T12:01:39;8.00;;;3.10;;
20000;SDS011;10161;41.188;-8.642;2023-05-07T12:04:07;14.23;;;3.50;;
20000;SDS011;10161;41.188;-8.642;2023-05-07T12:06:37;7.47;;;3.33;;
20000;SDS011;10161;41.188;-8.642;2023-05-07T12:09:06;9.80;;;3.80;;
20000;SDS011;10161;41.188;-8.642;2023-05-07T12:11:36;12.40;;;3.73;;
20000;SDS011;10161;41.188;-8.642;2023-05-07T12:14:05;10.97;;;2.50;;
20000;SDS011;10161;41.188;-8.642;2023-05-07T12:16:32;8.37;;;2.80;;
20000;SDS011;10161;41.188;-8.642;2023-05-07T12:18:59;9.90;;;2.93;;
20000;SDS011;10161;41.188;-8.642;2023-05-07T12:21:26;8.40;;;2.03;;
20000;SDS011;10161;41.188;-8.642;2023-05-07T12:23:56;9.73;;;2.70;;
20000;SDS011;10161;41.188;-8.642;2023-05-07T12:26:23;9.73;;;3.00;;
20000;SDS011;10161;41.188;-8.642;2023-05-07T12:28:51;6.77;;;3.10;;
20000;SDS011;10161;41.188;-8.642;2023-05-07T12:31:18;6.63;;;3.10;;
20000;SDS011;10161;41.188;-8.642;2023-05-07T12:33:45;7.63;;;2.83;;
20000;SDS011;10161;41.188;-8.642;2023-05-07T12:36:12;10.87;;;2.90;;
20000;SDS011;10161;41.188;-8.642;2023-05-07T12:38:40;10.27;;;3.50;;
20000;SDS011;10161;41.188;-8.642;2023-05-07T12:41:10;7.17;;;2.60;;
20000;SDS011;10161;41.188;-8.642;2023-05-07T12:43:37;7.90;;;3.67;;
20000;SDS011;10161;41.188;-8.642;2023-05-07T12:46:05;10.70;;;3.60;;
20000;SDS011;10161;41.188;-8.642;2023-05-07T12:48:33;9.63;;;3.10;;
20000;SDS011;10161;41.188;-8.642;2023-05-07T12:51:02;9.67;;;3.00;;
20000;SDS011;10161;41.188;-8.642;2023-05-07T12:53:33;10.03;;;3.27;;
20000;SDS011;10161;41.188;-8.642;2023-05-07T12:56:01;7.90;;;2.80;;
20000;SDS011;10161;41.188;-8.642;2023-05-07T12:58:32;7.13;;;2.80;;
20000;SDS011;10161;41.188;-8.642;2023-05-07T13:01:01;7.53;;;2.60;;
20000;SDS011;10161;41.188;-8.642;2023-05-07T13:03:31;10.57;;;3.17;;
20000;SDS011;10161;41.188;-8.642;2023-05-07T13:06:00;8.60;;;3.20;;
20000;SDS011;10161;41.188;-8.642;2023-05-07T13:08:29;9.20;;;2.90;;
20000;SDS011;10161;41.188;-8.642;2023-05-07T13:10:57;10.90;;;3.40;;
20000;SDS011;10161;41.188;-8.642;2023-05-07T13:13:29;6.07;;;2.50;;
20000;SDS011;10161;41.188;-8.642;2023-05-07T13:15:56;6.57;;;2.77;;
20000;SDS011;10161;41.188;-8.642;2023-05-07T13:18:24;12.63;;;3.13;;
20000;SDS011;10161;41.188;-8.642;2023-05-07T13:20:51;10.27;;;2.40;;
20000;SDS011;10161;41.188;-8.642;2023-05-07T13:23:18;9.57;;;3.10;;
20000;SDS011;10161;41.188;-8.642;2023-05-07T13:25:45;8.77;;;2.90;;
20000;SDS011;10161;41.188;-8.642;2023-05-07T13:28:12;6.13;;;2.60;;
20000;SDS011;10161;41.188;-8.642;2023-05-07T13:30:41;8.00;;;2.90;;
20000;SDS011;10161;41.188;-8.642;2023-05-07T13:33:08;7.83;;;2.90;;
20000;SDS011;10161;41.188;-8.642;2023-05-07T13:35:36;10.07;;;3.40;;
20000;SDS011;10161;41.188;-8.642;2023-05-07T13:38:03;6.77;;;3.03;;
20000;SDS011;10161;41.188;-8.642;2023-05-07T13:40:31;9.77;;;2.60;;
20000;SDS011;10161;41.188;-8.642;2023-05-07T13:42:59;9.20;;;2.83;;
20000;SDS011;10161;41.188;-8.642;2023-05-07T13:45:27;9.57;;;2.63;;
20000;SDS011;10161;41.188;-8.642;2023-05-07T13:48:00;7.80;;;2.90;;
20000;SDS011;10161;41.188;-8.642;2023-05-07T13:50:28;11.23;;;2.90;;
20000;SDS011;10161;41.188;-8.642;2023-05-07T13:52:56;8.77;;;3.17;;
20000;SDS011;10161;41.188;-8.642;2023-05-07T13:55:24;10.27;;;3.00;;
20000;SDS011;10161;41.188;-8.642;2023-05-07T13:57:54;8.57;;;3.40;;
20000;SDS011;10161;41.188;-8.642;2023-05-07T14:00:24;9.80;;;2.93;;
20000;SDS011;10161;41.188;-8.642;2023-05-07T14:02:51;11.77;;;3.27;;
20000;SDS011;10161;41.188;-8.642;2023-05-07T14:05:20;8.43;;;2.77;;
20000;SDS011;10161;41.188;-8.642;2023-05-07T14:07:50;5.90;;;2.40;;
20000;SDS011;10161;41.188;-8.642;2023-05-07T14:10:17;8.13;;;3.10;;
20000;SDS011;10161;41.188;-8.642;2023-05-07T14:12:47;8.30;;;2.67;;
20000;SDS011;10161;41.188;-8.642;2023-05-07T14:15:14;7.07;;;2.40;;
20000;SDS011;10161;41.188;-8.642;2023-05-07T14:17:42;6.30;;;2.83;;
20000;SDS011;10161;41.188;-8.642;2023-05-07T14:20:09;6.00;;;2.33;;
20000;SDS011;10161;41.188;-8.642;2023-05-07T14:22:41;6.27;;;2.10;;
20000;SDS011;10161;41.188;-8.642;2023-05-07T14:25:08;7.80;;;2.83;;
20000;SDS011;10161;41.188;-8.642;2023-05-07T14:27:35;4.83;;;2.50;;
20000;SDS011;10161;41.188;-8.642;2023-05-07T14:30:03;13.13;;;3.00;;
20000;SDS011;10161;41.188;-8.642;2023-05-07T14:32:31;8.17;;;3.30;;
20000;SDS011;10161;41.188;-8.642;2023-05-07T14:34:58;7.33;;;2.20;;